createdAt,value
2018-10-09T00:02:10.717Z,22.05
2018-10-09T00:04:38.410Z,21.93
2018-10-09T00:07:05.805Z,22.58
2018-10-09T00:09:33.211Z,21.25
2018-10-09T00:12:01.083Z,22.37
2018-10-09T00:14:29.190Z,22.90
2018-10-09T00:16:56.866Z,22.02
2018-10-09T00:19:27.027Z,22.82
2018-10-09T00:21:57.465Z,21.97
2018-10-09T00:24:25.626Z,23.62
2018-10-09T00:26:53.722Z,21.40
2018-10-09T00:29:22.731Z,23.38
2018-10-09T00:31:50.129Z,21.85
2018-10-09T00:34:17.794Z,21.27
2018-10-09T00:36:45.247Z,20.85
2018-10-09T00:39:13.261Z,21.77
2018-10-09T00:41:42.304Z,25.62
2018-10-09T00:46:42.125Z,25.40
2018-10-09T01:02:05.135Z,22.65
2018-10-09T01:04:33.472Z,26.12
2018-10-09T01:07:00.974Z,23.20
2018-10-09T01:09:28.474Z,23.15
2018-10-09T01:12:00.325Z,22.62
2018-10-09T01:14:36.270Z,21.42
2018-10-09T01:17:09.542Z,22.82
2018-10-09T01:19:42.881Z,23.92
2018-10-09T01:22:10.457Z,23.25
2018-10-09T01:24:43.222Z,22.98
2018-10-09T01:27:12.058Z,24.43
2018-10-09T01:29:42.166Z,21.33
2018-10-09T01:32:10.093Z,22.15
2018-10-09T01:37:04.761Z,21.75
2018-10-09T01:39:36.676Z,24.30
2018-10-09T01:42:08.852Z,22.00
2018-10-09T01:44:40.866Z,23.20
2018-10-09T01:47:08.865Z,22.05
2018-10-09T01:49:36.806Z,21.97
2018-10-09T01:52:04.277Z,22.42
2018-10-09T01:54:32.031Z,24.30
2018-10-09T01:57:00.001Z,24.43
2018-10-09T01:59:27.994Z,22.37
2018-10-09T02:01:56.045Z,23.50
2018-10-09T02:04:23.746Z,22.22
2018-10-09T02:06:55.721Z,22.42
2018-10-09T02:09:24.083Z,24.20
2018-10-09T02:11:51.652Z,23.65
2018-10-09T02:14:19.101Z,21.97
2018-10-09T02:16:46.497Z,22.67
2018-10-09T02:19:16.935Z,23.52
2018-10-09T02:21:51.671Z,22.00
2018-10-09T02:26:46.972Z,28.12
2018-10-09T02:29:14.338Z,24.52
2018-10-09T02:31:42.255Z,23.50
2018-10-09T02:34:09.582Z,23.77
2018-10-09T02:36:47.578Z,24.82
2018-10-09T02:39:16.114Z,23.73
2018-10-09T02:41:43.540Z,20.50
2018-10-09T02:44:15.116Z,22.35
2018-10-09T02:46:42.979Z,23.92
2018-10-09T02:49:10.406Z,22.40
2018-10-09T02:51:41.796Z,21.50
2018-10-09T02:54:09.196Z,21.48
2018-10-09T02:56:37.083Z,23.80
2018-10-09T02:59:05.261Z,22.13
2018-10-09T03:01:35.090Z,23.22
2018-10-09T03:04:04.133Z,23.92
2018-10-09T03:06:32.127Z,23.42
2018-10-09T03:08:59.620Z,24.23
2018-10-09T03:11:28.508Z,23.42
2018-10-09T03:14:01.850Z,22.32
2018-10-09T03:16:29.227Z,21.37
2018-10-09T03:18:56.761Z,23.07
2018-10-09T03:21:27.304Z,22.45
2018-10-09T03:23:56.980Z,21.70
2018-10-09T03:26:24.740Z,21.87
2018-10-09T03:28:53.713Z,25.52
2018-10-09T03:31:22.026Z,23.38
2018-10-09T03:33:50.268Z,23.77
2018-10-09T03:36:18.642Z,22.80
2018-10-09T03:38:48.666Z,22.75
2018-10-09T03:41:16.061Z,23.52
2018-10-09T03:43:43.953Z,23.55
2018-10-09T03:46:20.243Z,23.12
2018-10-09T03:48:48.767Z,22.75
2018-10-09T03:51:16.469Z,22.10
2018-10-09T03:53:47.821Z,21.12
2018-10-09T03:56:15.223Z,24.15
2018-10-09T03:58:43.048Z,22.35
2018-10-09T04:01:10.446Z,23.42
2018-10-09T04:03:38.364Z,23.87
2018-10-09T04:06:06.218Z,20.88
2018-10-09T04:08:33.702Z,20.27
2018-10-09T04:11:05.066Z,21.75
2018-10-09T04:13:33.586Z,24.43
2018-10-09T04:16:01.807Z,21.70
2018-10-09T04:18:29.202Z,22.13
2018-10-09T04:20:57.201Z,23.02
2018-10-09T04:23:25.860Z,21.93
2018-10-09T04:25:54.225Z,23.35
2018-10-09T04:28:22.542Z,23.75
2018-10-09T04:30:54.600Z,22.62
2018-10-09T04:33:22.713Z,22.52
2018-10-09T04:35:51.418Z,23.70
2018-10-09T04:38:21.018Z,21.20
2018-10-09T04:40:50.117Z,23.38
2018-10-09T04:43:17.464Z,21.15
2018-10-09T04:45:44.935Z,20.17
2018-10-09T04:48:12.363Z,20.75
2018-10-09T04:50:39.924Z,24.05
2018-10-09T04:53:08.447Z,24.10
2018-10-09T04:55:36.279Z,20.70
2018-10-09T04:58:03.842Z,23.55
2018-10-09T05:00:32.294Z,23.42
2018-10-09T05:03:00.883Z,23.47
2018-10-09T05:05:29.436Z,19.70
2018-10-09T05:07:56.831Z,22.05
2018-10-09T05:10:24.943Z,19.95
2018-10-09T05:12:52.319Z,20.23
2018-10-09T05:15:20.961Z,21.37
2018-10-09T05:17:48.395Z,22.27
2018-10-09T05:20:15.754Z,21.65
2018-10-09T05:22:47.445Z,20.62
2018-10-09T05:25:16.323Z,22.13
2018-10-09T05:27:48.871Z,22.42
2018-10-09T05:30:16.906Z,22.00
2018-10-09T05:32:44.338Z,23.87
2018-10-09T05:35:11.764Z,23.20
2018-10-09T05:37:39.595Z,21.37
2018-10-09T05:40:07.639Z,21.75
2018-10-09T05:42:35.345Z,22.10
2018-10-09T05:45:02.780Z,24.43
2018-10-09T05:47:30.086Z,25.62
2018-10-09T05:49:57.449Z,25.65
2018-10-09T05:52:25.146Z,25.05
2018-10-09T05:54:52.507Z,20.90
2018-10-09T05:57:19.824Z,22.13
2018-10-09T05:59:47.135Z,24.57
2018-10-09T06:02:14.512Z,23.42
2018-10-09T06:04:41.855Z,23.32
2018-10-09T06:07:09.224Z,23.75
2018-10-09T06:09:36.555Z,25.10
2018-10-09T06:12:03.881Z,21.45
2018-10-09T06:14:31.216Z,22.60
2018-10-09T06:16:58.520Z,22.70
2018-10-09T06:19:25.983Z,22.48
2018-10-09T06:21:53.310Z,23.30
2018-10-09T06:24:20.620Z,27.10
2018-10-09T06:26:47.949Z,24.18
2018-10-09T06:29:15.285Z,22.80
2018-10-09T06:31:42.647Z,23.20
2018-10-09T06:34:10.079Z,23.70
2018-10-09T06:36:37.453Z,23.18
2018-10-09T06:39:06.284Z,26.45
2018-10-09T06:41:33.584Z,25.37
2018-10-09T06:44:00.909Z,23.45
2018-10-09T06:46:28.237Z,23.70
2018-10-09T06:48:55.607Z,24.98
2018-10-09T06:51:22.934Z,23.70
2018-10-09T06:53:50.599Z,28.42
2018-10-09T06:56:17.864Z,25.60
2018-10-09T06:58:45.159Z,27.40
2018-10-09T07:01:12.511Z,27.32
2018-10-09T07:03:39.823Z,24.12
2018-10-09T07:06:07.221Z,23.42
2018-10-09T07:08:34.870Z,23.40
2018-10-09T07:11:02.300Z,26.40
2018-10-09T07:13:29.566Z,23.67
2018-10-09T07:15:56.912Z,23.67
2018-10-09T07:18:24.351Z,25.45
2018-10-09T07:20:51.842Z,25.88
2018-10-09T07:23:19.164Z,23.55
2018-10-09T07:25:46.542Z,24.10
2018-10-09T07:28:13.896Z,24.90
2018-10-09T07:30:41.236Z,23.42
2018-10-09T07:33:08.564Z,23.20
2018-10-09T07:35:35.947Z,25.35
2018-10-09T07:38:03.415Z,25.70
2018-10-09T07:40:30.811Z,26.30
2018-10-09T07:42:58.229Z,23.55
2018-10-09T07:45:25.675Z,25.25
2018-10-09T07:47:53.034Z,25.97
2018-10-09T07:50:20.368Z,25.05
2018-10-09T07:52:47.730Z,24.40
2018-10-09T07:55:15.108Z,24.80
2018-10-09T07:57:42.486Z,25.20
2018-10-09T08:00:09.873Z,22.62
2018-10-09T08:02:37.239Z,25.45
2018-10-09T08:05:04.655Z,25.62
2018-10-09T08:07:32.274Z,24.45
2018-10-09T08:09:59.598Z,22.98
2018-10-09T08:12:26.928Z,25.08
2018-10-09T08:14:54.291Z,21.27
2018-10-09T08:17:21.678Z,24.85
2018-10-09T08:19:49.142Z,25.05
2018-10-09T08:22:16.564Z,24.18
2018-10-09T08:24:43.806Z,23.87
2018-10-09T08:27:11.110Z,23.10
2018-10-09T08:29:38.515Z,25.60
2018-10-09T08:32:05.956Z,27.67
2018-10-09T08:34:33.323Z,24.47
2018-10-09T08:37:00.626Z,24.20
2018-10-09T08:39:27.983Z,25.85
2018-10-09T08:41:55.370Z,25.95
2018-10-09T08:44:22.727Z,25.90
2018-10-09T08:46:50.139Z,28.70
2018-10-09T08:49:18.166Z,27.77
2018-10-09T08:51:45.953Z,27.02
2018-10-09T08:54:13.498Z,27.10
2018-10-09T08:56:40.839Z,31.87
2018-10-09T08:59:08.135Z,26.95
2018-10-09T09:01:35.559Z,25.40
2018-10-09T09:04:02.866Z,26.65
2018-10-09T09:06:30.395Z,28.65
2018-10-09T09:08:57.721Z,28.42
2018-10-09T09:11:25.802Z,27.30
2018-10-09T09:13:53.309Z,30.17
2018-10-09T09:16:20.859Z,31.35
2018-10-09T09:18:48.319Z,30.30
2018-10-09T09:21:15.765Z,29.00
2018-10-09T09:23:43.072Z,31.07
2018-10-09T09:26:10.452Z,28.80
2018-10-09T09:28:37.955Z,29.45
2018-10-09T09:31:05.309Z,29.80
2018-10-09T09:33:32.683Z,31.10
2018-10-09T09:36:00.132Z,29.52
2018-10-09T09:38:27.490Z,31.48
2018-10-09T09:40:54.840Z,28.77
2018-10-09T09:43:22.345Z,31.65
2018-10-09T09:45:49.794Z,30.72
2018-10-09T09:48:17.190Z,30.02
2018-10-09T09:50:44.559Z,27.10
2018-10-09T09:53:11.970Z,28.40
2018-10-09T09:55:39.310Z,28.95
2018-10-09T09:58:06.745Z,29.05
2018-10-09T10:00:40.412Z,35.90
2018-10-09T10:03:08.015Z,30.10
2018-10-09T10:05:35.347Z,30.72
2018-10-09T10:08:03.618Z,29.37
2018-10-09T10:10:30.931Z,28.67
2018-10-09T10:12:58.438Z,26.90
2018-10-09T10:15:25.810Z,31.80
2018-10-09T10:17:54.048Z,29.85
2018-10-09T10:20:21.463Z,33.05
2018-10-09T10:22:48.867Z,32.65
2018-10-09T10:25:16.244Z,29.05
2018-10-09T10:27:43.696Z,33.28
2018-10-09T10:30:11.040Z,31.48
2018-10-09T10:32:39.134Z,28.62
2018-10-09T10:35:06.475Z,30.60
2018-10-09T10:37:33.873Z,35.70
2018-10-09T10:40:01.292Z,29.67
2018-10-09T10:42:28.627Z,32.60
2018-10-09T10:44:56.062Z,33.50
2018-10-09T10:47:23.423Z,29.80
2018-10-09T10:49:50.771Z,34.75
2018-10-09T10:52:18.144Z,32.80
2018-10-09T10:54:45.488Z,31.42
2018-10-09T10:57:12.801Z,33.98
2018-10-09T10:59:40.179Z,32.30
2018-10-09T11:02:07.592Z,35.65
2018-10-09T11:04:34.941Z,32.25
2018-10-09T11:07:02.480Z,31.00
2018-10-09T11:09:29.833Z,31.60
2018-10-09T11:11:57.806Z,32.35
2018-10-09T11:14:25.285Z,33.30
2018-10-09T11:16:52.596Z,35.60
2018-10-09T11:19:19.930Z,31.30
2018-10-09T11:21:47.351Z,32.90
2018-10-09T11:24:14.661Z,31.65
2018-10-09T11:26:42.217Z,38.13
2018-10-09T11:29:09.518Z,31.65
2018-10-09T11:31:36.930Z,34.25
2018-10-09T11:34:04.315Z,34.58
2018-10-09T11:36:32.966Z,35.30
2018-10-09T11:39:00.310Z,33.25
2018-10-09T11:41:27.799Z,32.53
2018-10-09T11:43:55.256Z,29.10
2018-10-09T11:46:22.585Z,29.72
2018-10-09T11:48:49.916Z,31.02
2018-10-09T11:51:17.362Z,29.37
2018-10-09T11:53:45.437Z,32.93
2018-10-09T11:56:12.740Z,33.13
2018-10-09T11:58:40.159Z,29.87
2018-10-09T12:01:08.958Z,32.80
2018-10-09T12:03:36.500Z,28.83
2018-10-09T12:06:03.859Z,29.87
2018-10-09T12:08:31.344Z,32.67
2018-10-09T12:10:58.711Z,32.55
2018-10-09T12:13:26.032Z,32.38
2018-10-09T12:15:53.460Z,35.13
2018-10-09T12:18:20.689Z,29.47
2018-10-09T12:20:48.069Z,31.70
2018-10-09T12:23:16.213Z,32.15
2018-10-09T12:25:43.639Z,31.33
2018-10-09T12:28:11.053Z,29.60
2018-10-09T12:30:38.489Z,29.07
2018-10-09T12:33:05.852Z,30.07
2018-10-09T12:35:33.147Z,27.87
2018-10-09T12:38:00.581Z,29.90
2018-10-09T12:40:28.034Z,28.92
2018-10-09T12:42:55.365Z,28.57
2018-10-09T12:45:22.773Z,26.30
2018-10-09T12:47:50.339Z,27.07
2018-10-09T12:50:17.644Z,25.33
2018-10-09T12:52:45.011Z,25.67
2018-10-09T12:55:12.310Z,27.07
2018-10-09T12:57:39.734Z,27.52
2018-10-09T13:00:07.076Z,27.27
2018-10-09T13:02:34.408Z,27.10
2018-10-09T13:05:01.739Z,26.97
2018-10-09T13:07:29.060Z,27.63
2018-10-09T13:09:56.522Z,26.33
2018-10-09T13:12:23.885Z,27.05
2018-10-09T13:14:51.214Z,26.10
2018-10-09T13:17:18.664Z,27.80
2018-10-09T13:19:45.966Z,28.30
2018-10-09T13:22:13.437Z,29.37
2018-10-09T13:24:40.593Z,26.53
2018-10-09T13:27:08.163Z,25.45
2018-10-09T13:29:35.667Z,27.70
2018-10-09T13:32:03.106Z,27.40
2018-10-09T13:34:30.525Z,27.27
2018-10-09T13:36:57.860Z,24.95
2018-10-09T13:39:25.233Z,27.65
2018-10-09T13:41:52.552Z,28.20
2018-10-09T13:44:20.621Z,28.50
2018-10-09T13:46:48.004Z,25.93
2018-10-09T13:49:15.323Z,25.27
2018-10-09T13:51:42.744Z,25.08
2018-10-09T13:54:10.085Z,24.90
2018-10-09T13:56:37.407Z,24.80
2018-10-09T13:59:04.812Z,25.25
2018-10-09T14:01:32.220Z,30.02
2018-10-09T14:04:00.207Z,24.57
2018-10-09T14:06:27.524Z,26.70
2018-10-09T14:08:54.932Z,26.42
2018-10-09T14:11:22.268Z,26.93
2018-10-09T14:13:49.623Z,25.63
2018-10-09T14:16:17.013Z,23.80
2018-10-09T14:18:44.338Z,29.47
2018-10-09T14:21:11.708Z,28.15
2018-10-09T14:23:39.071Z,28.17
2018-10-09T14:26:06.431Z,29.37
2018-10-09T14:28:33.750Z,34.33
2018-10-09T14:31:01.150Z,35.78
2018-10-09T14:33:28.499Z,32.90
2018-10-09T14:35:55.826Z,30.48
2018-10-09T14:38:23.191Z,30.00
2018-10-09T14:40:50.657Z,30.32
2018-10-09T14:43:18.021Z,29.85
2018-10-09T14:45:45.341Z,36.30
2018-10-09T14:48:12.678Z,37.03
2018-10-09T14:50:39.965Z,34.07
2018-10-09T14:53:07.341Z,38.77
2018-10-09T14:55:35.366Z,36.10
2018-10-09T14:58:02.740Z,34.80
2018-10-09T15:00:30.063Z,33.85
2018-10-09T15:02:57.467Z,30.82
2018-10-09T15:05:24.784Z,32.95
2018-10-09T15:07:52.137Z,34.08
2018-10-09T15:10:19.503Z,31.57
2018-10-09T15:12:46.892Z,34.10
2018-10-09T15:15:14.271Z,29.72
2018-10-09T15:17:41.655Z,36.40
2018-10-09T15:20:09.764Z,30.97
2018-10-09T15:22:37.115Z,29.87
2018-10-09T15:25:04.435Z,31.15
2018-10-09T15:27:31.796Z,33.00
2018-10-09T15:29:59.120Z,32.42
2018-10-09T15:32:26.484Z,29.90
2018-10-09T15:34:53.883Z,31.42
2018-10-09T15:37:21.244Z,32.50
2018-10-09T15:39:48.592Z,29.80
2018-10-09T15:42:15.946Z,32.95
2018-10-09T15:44:43.638Z,33.18
2018-10-09T15:47:11.019Z,30.80
2018-10-09T15:49:38.324Z,29.25
2018-10-09T15:52:05.665Z,30.35
2018-10-09T15:54:32.988Z,29.40
2018-10-09T15:57:00.375Z,27.20
2018-10-09T15:59:27.712Z,31.15
2018-10-09T16:01:55.135Z,32.45
2018-10-09T16:04:22.439Z,32.85
2018-10-09T16:06:49.814Z,32.13
2018-10-09T16:09:17.275Z,29.67
2018-10-09T16:11:44.694Z,26.90
2018-10-09T16:14:11.980Z,29.00
2018-10-09T16:16:39.346Z,30.32
2018-10-09T16:19:06.776Z,29.10
2018-10-09T16:21:34.224Z,31.55
2018-10-09T16:24:01.515Z,30.23
2018-10-09T16:26:28.871Z,29.27
2018-10-09T16:28:56.303Z,31.33
2018-10-09T16:31:23.673Z,27.45
2018-10-09T16:33:51.020Z,30.95
2018-10-09T16:36:18.391Z,32.17
2018-10-09T16:38:45.818Z,32.05
2018-10-09T16:41:13.196Z,27.82
2018-10-09T16:43:40.598Z,29.70
2018-10-09T16:46:08.131Z,29.57
2018-10-09T16:48:35.627Z,30.27
2018-10-09T16:51:02.966Z,26.93
2018-10-09T16:53:30.364Z,27.67
2018-10-09T16:55:57.727Z,28.45
2018-10-09T16:58:25.078Z,29.92
2018-10-09T17:00:52.431Z,29.45
2018-10-09T17:03:19.727Z,30.65
2018-10-09T17:05:47.153Z,29.35
2018-10-09T17:08:14.502Z,27.80
2018-10-09T17:10:41.921Z,30.80
2018-10-09T17:13:09.976Z,30.32
2018-10-09T17:15:41.853Z,27.65
2018-10-09T17:18:09.314Z,30.25
2018-10-09T17:20:37.303Z,30.82
2018-10-09T17:23:05.450Z,32.70
2018-10-09T17:25:32.869Z,34.35
2018-10-09T17:28:01.060Z,33.13
2018-10-09T17:30:28.633Z,32.58
2018-10-09T17:32:56.520Z,32.20
2018-10-09T17:35:23.988Z,31.85
2018-10-09T17:37:51.673Z,31.00
2018-10-09T17:40:19.214Z,30.80
2018-10-09T17:42:46.688Z,32.65
2018-10-09T17:45:14.149Z,26.20
2018-10-09T17:47:47.359Z,34.45
2018-10-09T17:50:15.174Z,31.75
2018-10-09T17:52:44.561Z,31.07
2018-10-09T17:55:12.099Z,31.87
2018-10-09T17:57:39.755Z,31.15
2018-10-09T18:00:08.758Z,34.65
2018-10-09T18:02:40.051Z,31.57
2018-10-09T18:05:07.725Z,27.22
2018-10-09T18:10:08.406Z,32.83
2018-10-09T18:12:35.787Z,31.33
2018-10-09T18:15:03.829Z,29.70
2018-10-09T18:17:37.959Z,29.45
2018-10-09T18:20:05.758Z,29.45
2018-10-09T18:22:35.313Z,34.03
2018-10-09T18:25:02.719Z,30.52
2018-10-09T18:27:31.311Z,29.45
2018-10-09T18:29:58.804Z,29.02
2018-10-09T18:32:26.506Z,28.57
2018-10-09T18:34:54.780Z,32.58
2018-10-09T18:37:22.668Z,28.35
2018-10-09T18:39:50.465Z,27.20
2018-10-09T18:42:18.249Z,26.68
2018-10-09T18:44:45.637Z,29.07
2018-10-09T18:47:18.834Z,31.68
2018-10-09T18:49:46.648Z,25.90
2018-10-09T18:52:14.875Z,30.35
2018-10-09T18:54:42.325Z,26.77
2018-10-09T18:57:35.333Z,27.98
2018-10-09T19:00:08.412Z,28.38
2018-10-09T19:02:36.115Z,32.40
2018-10-09T19:05:04.070Z,27.42
2018-10-09T19:07:32.698Z,31.60
2018-10-09T19:10:00.314Z,29.63
2018-10-09T19:12:27.796Z,30.68
2018-10-09T19:14:55.200Z,29.12
2018-10-09T19:17:23.487Z,31.87
2018-10-09T19:19:50.990Z,31.10
2018-10-09T19:22:20.404Z,30.15
2018-10-09T19:24:47.978Z,29.57
2018-10-09T19:27:15.415Z,32.42
2018-10-09T19:29:43.987Z,28.75
2018-10-09T19:32:11.404Z,29.45
2018-10-09T19:34:40.149Z,31.45
2018-10-09T19:37:07.856Z,30.92
2018-10-09T19:39:44.444Z,32.05
2018-10-09T19:42:11.904Z,31.65
2018-10-09T19:45:02.796Z,31.50
2018-10-09T19:47:34.984Z,31.35
2018-10-09T19:50:02.441Z,31.27
2018-10-09T19:52:30.569Z,33.67
2018-10-09T19:54:59.076Z,35.03
2018-10-09T19:57:28.113Z,33.80
2018-10-09T19:59:55.887Z,32.10
2018-10-09T20:02:24.203Z,32.42
2018-10-09T20:04:51.640Z,34.78
2018-10-09T20:07:19.538Z,35.00
2018-10-09T20:09:48.167Z,34.63
2018-10-09T20:12:15.833Z,34.58
2018-10-09T20:14:43.281Z,34.48
2018-10-09T20:17:10.776Z,35.43
2018-10-09T20:21:53.954Z,33.18
2018-10-09T20:24:21.738Z,32.70
2018-10-09T20:26:49.745Z,31.60
2018-10-09T20:29:17.287Z,34.27
2018-10-09T20:31:45.322Z,33.78
2018-10-09T20:34:12.719Z,38.80
2018-10-09T20:36:40.121Z,33.65
2018-10-09T20:39:09.974Z,31.73
2018-10-09T20:44:10.781Z,33.45
2018-10-09T20:46:38.331Z,32.20
2018-10-09T20:49:05.989Z,36.90
2018-10-09T20:51:33.394Z,34.27
2018-10-09T20:54:01.245Z,36.42
2018-10-09T20:56:33.512Z,33.50
2018-10-09T20:59:00.975Z,36.08
2018-10-09T21:01:28.378Z,38.78
2018-10-09T21:03:56.921Z,30.97
2018-10-09T21:06:25.032Z,34.20
2018-10-09T21:08:53.446Z,34.45
2018-10-09T21:11:21.654Z,32.55
2018-10-09T21:13:49.771Z,33.30
2018-10-09T21:16:18.487Z,32.90
2018-10-09T21:18:45.923Z,36.35
2018-10-09T21:21:13.478Z,34.88
2018-10-09T21:23:40.877Z,31.77
2018-10-09T21:26:08.675Z,31.45
2018-10-09T21:28:36.092Z,33.85
2018-10-09T21:31:04.064Z,33.88
2018-10-09T21:33:31.475Z,31.95
2018-10-09T21:35:58.867Z,35.28
2018-10-09T21:40:54.174Z,31.30
2018-10-09T21:43:22.014Z,30.80
2018-10-09T21:45:49.370Z,36.55
2018-10-09T21:48:17.981Z,32.85
2018-10-09T21:50:45.374Z,32.50
2018-10-09T21:53:13.367Z,35.05
2018-10-09T21:55:40.878Z,37.28
2018-10-09T21:58:08.238Z,34.48
2018-10-09T22:03:19.199Z,36.98
2018-10-09T22:05:46.931Z,35.80
2018-10-09T22:10:42.394Z,36.38
2018-10-09T22:13:09.999Z,36.68
2018-10-09T22:15:37.438Z,32.93
2018-10-09T22:18:04.898Z,34.75
2018-10-09T22:20:32.243Z,35.78
2018-10-09T22:22:59.706Z,32.60
2018-10-09T22:25:28.460Z,37.35
2018-10-09T22:27:56.329Z,36.03
2018-10-09T22:30:23.700Z,39.33
2018-10-09T22:32:51.115Z,35.63
2018-10-09T22:35:22.508Z,32.38
2018-10-09T22:37:51.030Z,36.70
2018-10-09T22:40:18.430Z,36.68
2018-10-09T22:42:46.607Z,33.98
2018-10-09T22:45:15.704Z,35.35
2018-10-09T22:47:44.015Z,34.53
2018-10-09T22:50:12.298Z,36.25
2018-10-09T22:52:41.298Z,32.93
2018-10-09T22:55:08.728Z,35.63
2018-10-09T22:57:36.919Z,33.92
2018-10-09T23:00:04.656Z,33.25
2018-10-09T23:02:31.996Z,30.37
2018-10-09T23:05:04.096Z,33.25
2018-10-09T23:07:32.440Z,34.70
2018-10-09T23:10:01.207Z,35.98
2018-10-09T23:12:28.886Z,35.25
2018-10-09T23:14:56.202Z,36.55
2018-10-09T23:17:23.562Z,35.95
2018-10-09T23:19:54.934Z,35.08
2018-10-09T23:22:22.975Z,33.98
2018-10-09T23:24:50.472Z,35.92
2018-10-09T23:27:18.553Z,34.40
2018-10-09T23:29:45.935Z,32.93
2018-10-09T23:32:13.363Z,36.40
2018-10-09T23:34:40.709Z,35.68
2018-10-09T23:37:09.128Z,36.70
2018-10-09T23:39:37.109Z,33.15
2018-10-09T23:42:04.856Z,36.98
2018-10-09T23:44:32.921Z,34.88
2018-10-09T23:47:00.303Z,35.60
2018-10-09T23:49:27.870Z,36.77
2018-10-09T23:51:55.225Z,35.92
2018-10-09T23:54:22.692Z,35.98
2018-10-09T23:56:50.091Z,35.68
2018-10-09T23:59:18.505Z,36.85
